Silver Bergen — LAHO6 — position and weather

sailwx.info

Track history (hours):
 
Tides and Currents Weather Stations Pressure Air Temp Water Temp Dewpoint Dewpoint Depression Visibility Wind Speed Wind Dir Waves Ship Positions

Silver Bergen

Last reported at 2014-Dec-19 18:29 UTC. Time now 2014-Dec-20 12:16 UTC.
Position N 61°32' W 006°30'.

Length 97 m; draft 5.9 m.

Type: Cargo ship. MMSI: 257951000.

Date/timePositionNaut miles runAvg speedWind from/ knotsBaromVisibWave heightAir tempDewpointWater temp
2014-Dec-19 18:29N 61°32' W 006°30'1213.2
2014-Dec-19 17:33N 61°44' W 006°31'1312.7
2014-Dec-19 16:33N 61°57' W 006°32'1611.6
2014-Dec-19 15:08N 62°13' W 006°41'3 6.0
2014-Dec-19 14:34N 62°14' W 006°48'0 0.0
2014-Dec-19 13:27N 62°14' W 006°48'0 0.0
2014-Dec-19 12:33N 62°14' W 006°48'0 0.0
2014-Dec-19 11:24N 62°14' W 006°48'0 0.0
2014-Dec-19 09:33N 62°14' W 006°48'0 0.0
2014-Dec-19 08:33N 62°14' W 006°48'0 0.0
2014-Dec-19 07:33N 62°14' W 006°48'0 0.0
2014-Dec-19 06:27N 62°14' W 006°48'0 0.0
2014-Dec-19 05:27N 62°14' W 006°48'0 0.0
2014-Dec-19 04:33N 62°14' W 006°48'0 0.0
2014-Dec-19 03:21N 62°14' W 006°48'0 0.0
2014-Dec-19 02:33N 62°14' W 006°48'0 0.0
2014-Dec-19 01:33N 62°14' W 006°48'0 0.0
2014-Dec-19 00:27N 62°14' W 006°48'0 0.0
2014-Dec-18 23:30N 62°14' W 006°48'0 0.0
2014-Dec-18 22:24N 62°14' W 006°48'0 0.0
2014-Dec-18 21:27N 62°14' W 006°48'0 0.0
2014-Dec-18 20:27N 62°14' W 006°48'0 0.0
2014-Dec-18 19:27N 62°14' W 006°48'0 0.0
2014-Dec-18 18:33N 62°14' W 006°48'0 0.0
2014-Dec-18 17:33N 62°14' W 006°48'0 0.0
2014-Dec-18 16:30N 62°14' W 006°48'0 0.0
2014-Dec-18 15:27N 62°14' W 006°48'0 0.0
2014-Dec-18 14:21N 62°14' W 006°48'0 0.0
2014-Dec-18 13:30N 62°14' W 006°48'0 0.0
2014-Dec-18 12:15N 62°14' W 006°48'0 0.0
2014-Dec-18 11:21N 62°14' W 006°48'0 0.0
2014-Dec-18 10:21N 62°14' W 006°48'0 0.0
2014-Dec-18 09:27N 62°14' W 006°48'0 0.0
2014-Dec-18 08:33N 62°14' W 006°48'0 0.0
2014-Dec-18 07:30N 62°14' W 006°48'0 0.0
2014-Dec-18 06:24N 62°14' W 006°48'0 0.0
2014-Dec-18 05:18N 62°14' W 006°48'0 0.0
2014-Dec-18 04:30N 62°14' W 006°48'0 0.0
2014-Dec-18 03:24N 62°14' W 006°48'0 0.0
2014-Dec-18 02:30N 62°14' W 006°48'0 0.0
2014-Dec-18 01:33N 62°14' W 006°48'0 0.0
2014-Dec-18 00:33N 62°14' W 006°48'0 0.0
2014-Dec-17 23:30N 62°14' W 006°48'0 0.0
2014-Dec-17 22:24N 62°14' W 006°48'0 0.0
2014-Dec-17 21:27N 62°14' W 006°48'0 0.0
2014-Dec-17 20:33N 62°14' W 006°48'0 0.0
2014-Dec-17 19:30N 62°14' W 006°48'0 0.0
2014-Dec-17 18:30N 62°14' W 006°48'0 0.0
2014-Dec-17 17:33N 62°14' W 006°48'0 0.0
2014-Dec-17 16:30N 62°14' W 006°48'0 0.0
2014-Dec-17 15:21N 62°14' W 006°48'0 0.0
2014-Dec-17 14:33N 62°14' W 006°48'0 0.0
2014-Dec-17 13:27N 62°14' W 006°48'0 0.0
2014-Dec-17 12:33N 62°14' W 006°48'0 0.0
2014-Dec-17 11:30N 62°14' W 006°48'0 0.0
2014-Dec-17 10:24N 62°14' W 006°48'0 0.0
2014-Dec-17 09:28N 62°14' W 006°48'1 0.7
2014-Dec-17 08:34N 62°14' W 006°47'9 9.3
2014-Dec-17 07:33N 62°08' W 006°31'1313.5
2014-Dec-17 06:34N 61°59' W 006°10'1413.6
2014-Dec-17 05:33N 61°50' W 005°48'  
2014-Dec-13 00:20N 58°13' E 005°26'10 9.5
2014-Dec-12 23:15N 58°11' E 005°44'910.5
2014-Dec-12 22:22N 58°08' E 006°01'810.2
2014-Dec-12 21:33N 58°05' E 006°16'13611.2
2014-Dec-12 09:25N 57°48' E 010°30'1011.3
2014-Dec-12 08:33N 57°47' E 010°48'9 1.5
2014-Dec-12 02:33N 57°40' E 010°36'0 0.0
2014-Dec-12 01:30N 57°40' E 010°36'0 0.0
2014-Dec-12 00:33N 57°40' E 010°36'3 0.1
2014-Dec-10 12:19N 57°39' E 010°42'912.1
2014-Dec-10 11:33N 57°36' E 010°59'1212.0
2014-Dec-10 10:33N 57°31' E 011°19'1313.0
2014-Dec-10 09:33N 57°20' E 011°31'1413.1
2014-Dec-10 08:30N 57°07' E 011°42'1212.9
2014-Dec-10 07:33N 56°56' E 011°49'1211.9
2014-Dec-10 06:33N 56°45' E 011°59'1212.2
2014-Dec-10 05:33N 56°35' E 012°10'2613.1
2014-Dec-10 03:34N 56°11' E 012°29'1313.4
2014-Dec-10 02:33N 55°59' E 012°42'1312.9
2014-Dec-10 01:34N 55°47' E 012°42'1312.6
2014-Dec-10 00:33N 55°34' E 012°42'1313.1
2014-Dec-09 23:33N 55°21' E 012°41'1311.7
2014-Dec-09 22:26N 55°16' E 013°02'2512.3
2014-Dec-09 20:23N 55°14' E 013°47'1012.8
2014-Dec-09 19:33N 55°14' E 014°05'1211.8
2014-Dec-09 18:33N 55°19' E 014°25'  
Track history (hours):
 
Tides and Currents Weather Stations Pressure Air Temp Water Temp Dewpoint Dewpoint Depression Visibility Wind Speed Wind Dir Waves Ship Positions

Silver Bergen

Last reported at 2014-Dec-19 18:29 UTC. Time now 2014-Dec-20 12:16 UTC.
Position N 61°32' W 006°30'.

Length 97 m; draft 5.9 m.

Type: Cargo ship. MMSI: 257951000.

Date/timePositionNaut miles runAvg speedWind from/ knotsBaromVisibWave heightAir tempDewpointWater temp
2014-Dec-19 18:29N 61°32' W 006°30'1213.2
2014-Dec-19 17:33N 61°44' W 006°31'1312.7
2014-Dec-19 16:33N 61°57' W 006°32'1611.6
2014-Dec-19 15:08N 62°13' W 006°41'3 6.0
2014-Dec-19 14:34N 62°14' W 006°48'0 0.0
2014-Dec-19 13:27N 62°14' W 006°48'0 0.0
2014-Dec-19 12:33N 62°14' W 006°48'0 0.0
2014-Dec-19 11:24N 62°14' W 006°48'0 0.0
2014-Dec-19 09:33N 62°14' W 006°48'0 0.0
2014-Dec-19 08:33N 62°14' W 006°48'0 0.0
2014-Dec-19 07:33N 62°14' W 006°48'0 0.0
2014-Dec-19 06:27N 62°14' W 006°48'0 0.0
2014-Dec-19 05:27N 62°14' W 006°48'0 0.0
2014-Dec-19 04:33N 62°14' W 006°48'0 0.0
2014-Dec-19 03:21N 62°14' W 006°48'0 0.0
2014-Dec-19 02:33N 62°14' W 006°48'0 0.0
2014-Dec-19 01:33N 62°14' W 006°48'0 0.0
2014-Dec-19 00:27N 62°14' W 006°48'0 0.0
2014-Dec-18 23:30N 62°14' W 006°48'0 0.0
2014-Dec-18 22:24N 62°14' W 006°48'0 0.0
2014-Dec-18 21:27N 62°14' W 006°48'0 0.0
2014-Dec-18 20:27N 62°14' W 006°48'0 0.0
2014-Dec-18 19:27N 62°14' W 006°48'0 0.0
2014-Dec-18 18:33N 62°14' W 006°48'0 0.0
2014-Dec-18 17:33N 62°14' W 006°48'0 0.0
2014-Dec-18 16:30N 62°14' W 006°48'0 0.0
2014-Dec-18 15:27N 62°14' W 006°48'0 0.0
2014-Dec-18 14:21N 62°14' W 006°48'0 0.0
2014-Dec-18 13:30N 62°14' W 006°48'0 0.0
2014-Dec-18 12:15N 62°14' W 006°48'0 0.0
2014-Dec-18 11:21N 62°14' W 006°48'0 0.0
2014-Dec-18 10:21N 62°14' W 006°48'0 0.0
2014-Dec-18 09:27N 62°14' W 006°48'0 0.0
2014-Dec-18 08:33N 62°14' W 006°48'0 0.0
2014-Dec-18 07:30N 62°14' W 006°48'0 0.0
2014-Dec-18 06:24N 62°14' W 006°48'0 0.0
2014-Dec-18 05:18N 62°14' W 006°48'0 0.0
2014-Dec-18 04:30N 62°14' W 006°48'0 0.0
2014-Dec-18 03:24N 62°14' W 006°48'0 0.0
2014-Dec-18 02:30N 62°14' W 006°48'0 0.0
2014-Dec-18 01:33N 62°14' W 006°48'0 0.0
2014-Dec-18 00:33N 62°14' W 006°48'0 0.0
2014-Dec-17 23:30N 62°14' W 006°48'0 0.0
2014-Dec-17 22:24N 62°14' W 006°48'0 0.0
2014-Dec-17 21:27N 62°14' W 006°48'0 0.0
2014-Dec-17 20:33N 62°14' W 006°48'0 0.0
2014-Dec-17 19:30N 62°14' W 006°48'0 0.0
2014-Dec-17 18:30N 62°14' W 006°48'0 0.0
2014-Dec-17 17:33N 62°14' W 006°48'0 0.0
2014-Dec-17 16:30N 62°14' W 006°48'0 0.0
2014-Dec-17 15:21N 62°14' W 006°48'0 0.0
2014-Dec-17 14:33N 62°14' W 006°48'0 0.0
2014-Dec-17 13:27N 62°14' W 006°48'0 0.0
2014-Dec-17 12:33N 62°14' W 006°48'0 0.0
2014-Dec-17 11:30N 62°14' W 006°48'0 0.0
2014-Dec-17 10:24N 62°14' W 006°48'0 0.0
2014-Dec-17 09:28N 62°14' W 006°48'1 0.7
2014-Dec-17 08:34N 62°14' W 006°47'9 9.3
2014-Dec-17 07:33N 62°08' W 006°31'1313.5
2014-Dec-17 06:34N 61°59' W 006°10'1413.6
2014-Dec-17 05:33N 61°50' W 005°48'  
2014-Dec-13 00:20N 58°13' E 005°26'10 9.5
2014-Dec-12 23:15N 58°11' E 005°44'910.5
2014-Dec-12 22:22N 58°08' E 006°01'810.2
2014-Dec-12 21:33N 58°05' E 006°16'13611.2
2014-Dec-12 09:25N 57°48' E 010°30'1011.3
2014-Dec-12 08:33N 57°47' E 010°48'9 1.5
2014-Dec-12 02:33N 57°40' E 010°36'0 0.0
2014-Dec-12 01:30N 57°40' E 010°36'0 0.0
2014-Dec-12 00:33N 57°40' E 010°36'3 0.1
2014-Dec-10 12:19N 57°39' E 010°42'912.1
2014-Dec-10 11:33N 57°36' E 010°59'1212.0
2014-Dec-10 10:33N 57°31' E 011°19'1313.0
2014-Dec-10 09:33N 57°20' E 011°31'1413.1
2014-Dec-10 08:30N 57°07' E 011°42'1212.9
2014-Dec-10 07:33N 56°56' E 011°49'1211.9
2014-Dec-10 06:33N 56°45' E 011°59'1212.2
2014-Dec-10 05:33N 56°35' E 012°10'2613.1
2014-Dec-10 03:34N 56°11' E 012°29'1313.4
2014-Dec-10 02:33N 55°59' E 012°42'1312.9
2014-Dec-10 01:34N 55°47' E 012°42'1312.6
2014-Dec-10 00:33N 55°34' E 012°42'1313.1
2014-Dec-09 23:33N 55°21' E 012°41'1311.7
2014-Dec-09 22:26N 55°16' E 013°02'2512.3
2014-Dec-09 20:23N 55°14' E 013°47'1012.8
2014-Dec-09 19:33N 55°14' E 014°05'1211.8
2014-Dec-09 18:33N 55°19' E 014°25'  

Dump ship's entire track history